createdAt,value
2019-05-26T00:00:56.306Z,88.33
2019-05-26T00:01:56.363Z,89.09
2019-05-26T00:02:56.354Z,88.06
2019-05-26T00:03:56.226Z,88.47
2019-05-26T00:04:56.249Z,88.78
2019-05-26T00:05:56.201Z,89.19
2019-05-26T00:06:56.249Z,88.68
2019-05-26T00:07:56.214Z,88.98
2019-05-26T00:08:56.257Z,88.78
2019-05-26T00:09:56.159Z,88.27
2019-05-26T00:10:56.178Z,88.27
2019-05-26T00:11:56.130Z,88.78
2019-05-26T00:12:56.255Z,88.98
2019-05-26T00:13:56.110Z,88.92
2019-05-26T00:14:56.209Z,88.92
2019-05-26T00:15:56.096Z,88.82
2019-05-26T00:16:56.112Z,89.23
2019-05-26T00:17:56.080Z,89.03
2019-05-26T00:18:57.178Z,88.92
2019-05-26T00:19:56.040Z,88.92
2019-05-26T00:20:56.140Z,89.13
2019-05-26T00:21:56.025Z,89.13
2019-05-26T00:22:56.051Z,88.82
2019-05-26T00:23:56.577Z,88.92
2019-05-26T00:24:56.070Z,89.23
2019-05-26T00:25:55.978Z,89.33
2019-05-26T00:26:56.086Z,89.43
2019-05-26T00:27:55.952Z,89.84
2019-05-26T00:28:56.032Z,89.78
2019-05-26T00:29:55.933Z,89.89
2019-05-26T00:30:56.005Z,89.75
2019-05-26T00:31:55.914Z,89.75
2019-05-26T00:32:56.023Z,90.05
2019-05-26T00:33:55.926Z,90.16
2019-05-26T00:34:55.948Z,89.84
2019-05-26T00:35:55.860Z,89.95
2019-05-26T00:36:55.978Z,90.05
2019-05-26T00:37:55.852Z,89.95
2019-05-26T00:38:55.991Z,90.56
2019-05-26T00:39:55.825Z,90.77
2019-05-26T00:40:55.978Z,90.87
2019-05-26T00:41:55.805Z,91.18
2019-05-26T00:42:55.991Z,91.08
2019-05-26T00:43:55.789Z,91.42
2019-05-26T00:44:55.839Z,91.22
2019-05-26T00:45:55.767Z,91.18
2019-05-26T00:46:55.812Z,91.22
2019-05-26T00:47:55.735Z,91.33
2019-05-26T00:48:55.832Z,91.02
2019-05-26T00:49:55.738Z,91.22
2019-05-26T00:50:55.735Z,91.02
2019-05-26T00:51:55.691Z,91.22
2019-05-26T00:52:56.696Z,91.12
2019-05-26T00:53:55.685Z,91.02
2019-05-26T00:54:55.796Z,90.97
2019-05-26T00:55:55.646Z,91.22
2019-05-26T00:56:55.682Z,91.18
2019-05-26T00:57:55.620Z,90.97
2019-05-26T00:58:55.720Z,91.18
2019-05-26T00:59:55.620Z,91.38
2019-05-26T01:00:55.703Z,91.12
2019-05-26T01:01:55.603Z,91.22
2019-05-26T01:02:55.627Z,91.33
2019-05-26T01:03:55.553Z,90.56
2019-05-26T01:04:55.663Z,90.87
2019-05-26T01:05:55.548Z,90.87
2019-05-26T01:06:55.639Z,90.16
2019-05-26T01:08:05.783Z,91.53
2019-05-26T01:08:56.502Z,90.97
2019-05-26T01:09:55.600Z,90.56
2019-05-26T01:10:55.497Z,90.09
2019-05-26T01:11:55.582Z,89.84
2019-05-26T01:12:55.458Z,90.46
2019-05-26T01:13:55.489Z,90.46
2019-05-26T01:14:55.471Z,90.61
2019-05-26T01:15:55.502Z,89.75
2019-05-26T01:16:56.125Z,89.64
2019-05-26T01:17:55.518Z,89.75
2019-05-26T01:18:55.385Z,89.54
2019-05-26T01:19:55.458Z,90.26
2019-05-26T01:20:55.369Z,90.50
2019-05-26T01:21:55.446Z,90.26
2019-05-26T01:22:55.345Z,90.20
2019-05-26T01:23:55.462Z,89.95
2019-05-26T01:24:55.374Z,89.99
2019-05-26T01:25:55.398Z,90.20
2019-05-26T01:26:55.305Z,90.20
2019-05-26T01:27:55.387Z,89.99
2019-05-26T01:28:55.296Z,89.89
2019-05-26T01:29:55.290Z,90.30
2019-05-26T01:30:55.290Z,90.30
2019-05-26T01:31:55.314Z,90.30
2019-05-26T01:32:55.239Z,90.20
2019-05-26T01:33:55.321Z,90.09
2019-05-26T01:34:55.213Z,90.30
2019-05-26T01:35:55.283Z,90.20
2019-05-26T01:36:55.188Z,90.81
2019-05-26T01:37:55.263Z,90.09
2019-05-26T01:38:55.167Z,90.81
2019-05-26T01:39:55.258Z,90.91
2019-05-26T01:40:55.169Z,90.61
2019-05-26T01:41:55.173Z,90.09
2019-05-26T01:42:55.127Z,91.42
2019-05-26T01:43:55.188Z,90.81
2019-05-26T01:44:55.101Z,91.63
2019-05-26T01:45:55.342Z,90.91
2019-05-26T01:46:55.082Z,90.65
2019-05-26T01:47:55.114Z,90.75
2019-05-26T01:48:55.060Z,90.85
2019-05-26T01:49:55.127Z,90.75
2019-05-26T01:50:55.066Z,90.75
2019-05-26T01:51:55.156Z,90.24
2019-05-26T01:52:55.038Z,90.34
2019-05-26T01:53:55.060Z,89.93
2019-05-26T01:54:54.986Z,91.27
2019-05-26T01:55:55.199Z,91.06
2019-05-26T01:56:55.007Z,91.88
2019-05-26T01:57:55.081Z,91.88
2019-05-26T01:58:54.935Z,91.67
2019-05-26T01:59:55.006Z,91.27
2019-05-26T02:00:54.930Z,91.88
2019-05-26T02:01:58.582Z,91.99
2019-05-26T02:02:54.900Z,91.67
2019-05-26T02:03:54.926Z,91.47
2019-05-26T02:04:54.885Z,91.47
2019-05-26T02:05:54.929Z,91.20
2019-05-26T02:06:54.885Z,91.06
2019-05-26T02:07:54.967Z,91.37
2019-05-26T02:08:54.836Z,91.57
2019-05-26T02:09:54.829Z,90.95
2019-05-26T02:10:54.816Z,91.57
2019-05-26T02:11:54.914Z,91.27
2019-05-26T02:12:54.800Z,91.27
2019-05-26T02:13:54.883Z,90.85
2019-05-26T02:14:54.789Z,91.06
2019-05-26T02:15:54.804Z,90.48
2019-05-26T02:16:54.787Z,90.95
2019-05-26T02:17:54.850Z,90.69
2019-05-26T02:18:54.719Z,91.06
2019-05-26T02:19:54.831Z,90.85
2019-05-26T02:20:54.717Z,90.75
2019-05-26T02:21:54.737Z,90.95
2019-05-26T02:22:54.714Z,91.27
2019-05-26T02:23:54.758Z,91.57
2019-05-26T02:24:54.656Z,91.27
2019-05-26T02:25:54.771Z,91.67
2019-05-26T02:26:54.629Z,91.67
2019-05-26T02:27:54.704Z,91.88
2019-05-26T02:28:54.619Z,91.57
2019-05-26T02:29:54.743Z,91.67
2019-05-26T02:30:54.597Z,91.37
2019-05-26T02:31:54.700Z,92.13
2019-05-26T02:32:54.610Z,92.19
2019-05-26T02:33:54.607Z,92.54
2019-05-26T02:34:54.548Z,92.08
2019-05-26T02:35:54.637Z,92.03
2019-05-26T02:36:54.521Z,91.88
2019-05-26T02:37:54.573Z,91.82
2019-05-26T02:39:01.939Z,91.88
2019-05-26T02:39:55.519Z,92.03
2019-05-26T02:40:54.589Z,91.88
2019-05-26T02:41:54.470Z,92.13
2019-05-26T02:42:54.611Z,92.23
2019-05-26T02:43:54.446Z,92.13
2019-05-26T02:44:59.116Z,92.13
2019-05-26T02:45:55.420Z,92.13
2019-05-26T02:46:54.509Z,92.03
2019-05-26T02:47:54.415Z,92.13
2019-05-26T02:48:54.443Z,91.93
2019-05-26T02:49:54.379Z,91.82
2019-05-26T02:50:54.436Z,92.64
2019-05-26T02:51:54.361Z,92.40
2019-05-26T02:52:54.452Z,92.40
2019-05-26T02:53:54.358Z,92.40
2019-05-26T02:55:55.443Z,92.19
2019-05-26T02:56:54.369Z,91.99
2019-05-26T02:57:54.305Z,92.40
2019-05-26T02:59:05.077Z,92.50
2019-05-26T02:59:54.273Z,92.80
2019-05-26T03:00:54.303Z,93.21
2019-05-26T03:02:03.119Z,92.25
2019-05-26T03:02:55.232Z,92.80
2019-05-26T03:03:54.361Z,92.86
2019-05-26T03:04:54.220Z,92.46
2019-05-26T03:05:54.326Z,92.97
2019-05-26T03:06:54.186Z,93.07
2019-05-26T03:07:54.239Z,92.51
2019-05-26T03:08:54.169Z,92.21
2019-05-26T03:09:54.279Z,92.21
2019-05-26T03:10:54.149Z,92.10
2019-05-26T03:11:54.175Z,92.10
2019-05-26T03:12:54.128Z,92.21
2019-05-26T03:13:54.192Z,91.80
2019-05-26T03:14:54.142Z,91.14
2019-05-26T03:16:55.222Z,91.65
2019-05-26T03:17:54.109Z,91.75
2019-05-26T03:18:54.091Z,91.35
2019-05-26T03:19:54.171Z,91.86
2019-05-26T03:20:54.038Z,91.75
2019-05-26T03:22:55.206Z,91.55
2019-05-26T03:23:54.002Z,90.83
2019-05-26T03:24:54.079Z,91.09
2019-05-26T03:25:53.980Z,90.89
2019-05-26T03:26:54.080Z,91.09
2019-05-26T03:27:53.965Z,90.99
2019-05-26T03:28:53.982Z,90.48
2019-05-26T03:29:53.992Z,90.48
2019-05-26T03:30:53.997Z,90.48
2019-05-26T03:31:53.913Z,90.37
2019-05-26T03:32:54.008Z,90.54
2019-05-26T03:33:53.899Z,90.54
2019-05-26T03:34:53.941Z,90.03
2019-05-26T03:35:53.881Z,90.03
2019-05-26T03:36:53.932Z,90.17
2019-05-26T03:37:53.852Z,90.13
2019-05-26T03:38:53.954Z,90.54
2019-05-26T03:39:53.843Z,89.92
2019-05-26T03:40:53.883Z,89.72
2019-05-26T03:41:53.805Z,90.44
2019-05-26T03:42:53.879Z,90.13
2019-05-26T03:43:53.808Z,90.34
2019-05-26T03:44:53.892Z,90.13
2019-05-26T03:45:53.788Z,89.92
2019-05-26T03:46:53.799Z,90.03
2019-05-26T03:47:53.732Z,90.03
2019-05-26T03:48:53.812Z,90.03
2019-05-26T03:49:53.716Z,90.34
2019-05-26T03:50:53.850Z,89.68
2019-05-26T03:51:53.708Z,90.30
2019-05-26T03:52:53.744Z,89.98
2019-05-26T03:53:53.805Z,90.19
2019-05-26T03:54:53.760Z,89.68
2019-05-26T03:55:53.684Z,90.23
2019-05-26T03:56:53.782Z,89.78
2019-05-26T03:57:53.660Z,89.98
2019-05-26T03:58:53.668Z,89.78
2019-05-26T03:59:53.611Z,89.78
2019-05-26T04:00:53.723Z,89.53
2019-05-26T04:01:57.520Z,89.78
2019-05-26T04:02:53.612Z,89.27
2019-05-26T04:03:53.569Z,89.33
2019-05-26T04:04:53.617Z,89.23
2019-05-26T04:05:53.569Z,89.33
2019-05-26T04:06:53.627Z,89.53
2019-05-26T04:07:53.517Z,89.64
2019-05-26T04:08:53.633Z,89.23
2019-05-26T04:10:04.419Z,89.33
2019-05-26T04:10:54.578Z,89.29
2019-05-26T04:11:53.598Z,89.53
2019-05-26T04:12:53.461Z,89.29
2019-05-26T04:13:53.591Z,89.09
2019-05-26T04:14:53.462Z,89.29
2019-05-26T04:15:53.497Z,88.98
2019-05-26T04:16:56.209Z,88.88
2019-05-26T04:17:53.510Z,89.18
2019-05-26T04:18:53.395Z,88.78
2019-05-26T04:19:53.407Z,88.84
2019-05-26T04:20:53.371Z,88.88
2019-05-26T04:21:53.514Z,88.57
2019-05-26T04:22:53.353Z,89.29
2019-05-26T04:23:53.436Z,88.74
2019-05-26T04:24:53.427Z,88.84
2019-05-26T04:25:53.362Z,89.15
2019-05-26T04:26:53.338Z,89.25
2019-05-26T04:27:53.397Z,88.84
2019-05-26T04:28:53.315Z,88.84
2019-05-26T04:29:53.397Z,89.15
2019-05-26T04:30:53.264Z,89.15
2019-05-26T04:31:53.333Z,88.70
2019-05-26T04:32:53.240Z,88.74
2019-05-26T04:33:53.303Z,89.04
2019-05-26T04:34:53.227Z,88.70
2019-05-26T04:35:53.321Z,88.70
2019-05-26T04:36:53.247Z,88.64
2019-05-26T04:37:53.240Z,88.59
2019-05-26T04:38:53.170Z,88.70
2019-05-26T04:39:53.245Z,88.79
2019-05-26T04:40:53.143Z,88.70
2019-05-26T04:41:53.357Z,89.11
2019-05-26T04:42:53.169Z,88.79
2019-05-26T04:43:53.180Z,88.79
2019-05-26T04:44:53.113Z,88.49
2019-05-26T04:45:53.181Z,89.11
2019-05-26T04:46:53.112Z,89.11
2019-05-26T04:47:53.199Z,89.11
2019-05-26T04:48:53.093Z,89.11
2019-05-26T04:49:53.111Z,88.55
2019-05-26T04:50:53.081Z,88.39
2019-05-26T04:51:53.151Z,88.85
2019-05-26T04:53:05.280Z,88.55
2019-05-26T04:53:54.039Z,88.85
2019-05-26T04:54:53.039Z,88.55
2019-05-26T04:55:53.043Z,88.76
2019-05-26T04:56:53.094Z,88.55
2019-05-26T04:57:52.991Z,88.04
2019-05-26T04:58:53.083Z,88.96
2019-05-26T04:59:52.938Z,88.14
2019-05-26T05:00:53.000Z,88.24
2019-05-26T05:01:52.933Z,88.24
2019-05-26T05:02:53.035Z,88.41
2019-05-26T05:03:52.900Z,88.10
2019-05-26T05:04:53.020Z,88.20
2019-05-26T05:05:52.877Z,88.67
2019-05-26T05:06:52.922Z,88.17
2019-05-26T05:07:52.931Z,88.06
2019-05-26T05:08:52.932Z,88.06
2019-05-26T05:09:52.827Z,87.65
2019-05-26T05:10:52.845Z,87.85
2019-05-26T05:11:52.830Z,87.71
2019-05-26T05:12:52.888Z,87.96
2019-05-26T05:13:52.794Z,87.96
2019-05-26T05:14:52.889Z,88.37
2019-05-26T05:15:52.766Z,87.92
2019-05-26T05:16:52.792Z,87.92
2019-05-26T05:17:52.794Z,87.30
2019-05-26T05:18:52.801Z,87.30
2019-05-26T05:19:52.722Z,87.30
2019-05-26T05:20:52.812Z,87.10
2019-05-26T05:21:52.731Z,86.55
2019-05-26T05:22:52.756Z,86.65
2019-05-26T05:23:52.682Z,86.04
2019-05-26T05:24:52.750Z,86.45
2019-05-26T05:25:52.650Z,86.04
2019-05-26T05:26:52.780Z,86.41
2019-05-26T05:27:52.626Z,86.71
2019-05-26T05:28:52.692Z,86.10
2019-05-26T05:29:52.660Z,86.41
2019-05-26T05:30:52.677Z,86.16
2019-05-26T05:31:52.581Z,85.55
2019-05-26T05:32:52.689Z,85.66
2019-05-26T05:33:52.582Z,85.96
2019-05-26T05:34:52.604Z,85.55
2019-05-26T05:35:52.566Z,85.05
2019-05-26T05:36:52.635Z,85.05
2019-05-26T05:37:52.551Z,85.25
2019-05-26T05:38:52.564Z,84.70
2019-05-26T05:39:52.509Z,84.70
2019-05-26T05:40:59.379Z,84.59
2019-05-26T05:41:53.471Z,84.50
2019-05-26T05:42:52.557Z,84.45
2019-05-26T05:43:52.474Z,84.25
2019-05-26T05:44:52.478Z,83.13
2019-05-26T05:45:52.478Z,83.23
2019-05-26T05:46:52.532Z,82.68
2019-05-26T05:47:52.451Z,82.99
2019-05-26T05:48:52.531Z,82.68
2019-05-26T05:49:52.435Z,81.98
2019-05-26T05:50:52.407Z,82.89
2019-05-26T05:51:52.378Z,82.38
2019-05-26T05:52:52.423Z,82.68
2019-05-26T05:53:52.388Z,82.38
2019-05-26T05:54:52.445Z,82.48
2019-05-26T05:55:52.355Z,82.28
2019-05-26T05:56:55.486Z,81.77
2019-05-26T05:57:52.417Z,82.28
2019-05-26T05:58:52.389Z,82.28
2019-05-26T05:59:52.334Z,82.18
2019-05-26T06:00:52.382Z,82.24
2019-05-26T06:01:52.252Z,82.45
2019-05-26T06:02:52.292Z,82.45
2019-05-26T06:03:52.238Z,82.24
2019-05-26T06:04:52.334Z,82.04
2019-05-26T06:05:52.202Z,82.45
2019-05-26T06:06:52.317Z,82.54
2019-05-26T06:07:52.182Z,81.43
2019-05-26T06:08:52.224Z,81.29
2019-05-26T06:09:52.230Z,81.19
2019-05-26T06:10:52.233Z,81.29
2019-05-26T06:11:56.485Z,81.29
2019-05-26T06:12:52.279Z,81.39
2019-05-26T06:13:52.122Z,80.68
2019-05-26T06:14:52.367Z,81.29
2019-05-26T06:15:52.095Z,81.19
2019-05-26T06:16:52.279Z,81.09
2019-05-26T06:17:52.106Z,80.47
2019-05-26T06:18:52.395Z,80.44
2019-05-26T06:19:52.112Z,80.24
2019-05-26T06:20:52.449Z,80.33
2019-05-26T06:21:52.038Z,80.84
2019-05-26T06:22:52.431Z,80.24
2019-05-26T06:23:52.017Z,80.13
2019-05-26T06:24:53.695Z,79.79
2019-05-26T06:25:52.001Z,79.69
2019-05-26T06:27:53.487Z,79.59
2019-05-26T06:28:54.173Z,79.99
2019-05-26T06:29:58.920Z,79.14
2019-05-26T06:30:55.036Z,78.74
2019-05-26T06:31:51.983Z,79.25
2019-05-26T06:33:52.511Z,78.23
2019-05-26T06:34:52.012Z,78.23
2019-05-26T06:36:53.015Z,77.83
2019-05-26T06:38:53.486Z,77.52
2019-05-26T06:39:52.337Z,78.53
2019-05-26T06:40:51.857Z,76.81
2019-05-26T06:42:53.116Z,78.19
2019-05-26T06:43:52.279Z,77.12
2019-05-26T06:44:53.865Z,77.42
2019-05-26T06:45:53.545Z,77.42
2019-05-26T06:46:51.781Z,77.59
2019-05-26T06:48:52.875Z,77.28
2019-05-26T06:50:53.466Z,76.98
2019-05-26T06:52:53.015Z,76.57
2019-05-26T06:54:52.921Z,76.78
2019-05-26T06:55:53.654Z,75.66
2019-05-26T06:56:51.793Z,76.03
2019-05-26T06:57:53.693Z,76.06
2019-05-26T06:58:51.718Z,75.73
2019-05-26T06:59:53.808Z,76.17
2019-05-26T07:00:51.689Z,75.96
2019-05-26T07:01:53.966Z,75.86
2019-05-26T07:02:51.603Z,75.12
2019-05-26T07:04:52.682Z,75.01
2019-05-26T07:05:53.959Z,75.52
2019-05-26T07:06:51.606Z,76.50
2019-05-26T07:07:53.970Z,76.09
2019-05-26T07:08:51.515Z,74.98
2019-05-26T07:10:52.705Z,75.59
2019-05-26T07:11:59.716Z,75.85
2019-05-26T07:12:52.527Z,75.35
2019-05-26T07:14:53.010Z,75.45
2019-05-26T07:15:56.524Z,74.44
2019-05-26T07:16:51.417Z,74.84
2019-05-26T07:18:53.036Z,75.55
2019-05-26T07:20:53.024Z,74.24
2019-05-26T07:22:52.971Z,73.32
2019-05-26T07:23:55.212Z,74.10
2019-05-26T07:24:51.519Z,74.84
2019-05-26T07:26:52.815Z,74.51
2019-05-26T07:28:51.319Z,74.00
2019-05-26T07:29:55.155Z,74.13
2019-05-26T07:30:51.322Z,73.93
2019-05-26T07:31:55.162Z,74.44
2019-05-26T07:32:51.243Z,74.20
2019-05-26T07:34:52.365Z,74.10
2019-05-26T07:36:51.268Z,74.81
2019-05-26T07:38:51.268Z,73.76
2019-05-26T07:40:51.287Z,72.41
2019-05-26T07:42:09.354Z,72.41
2019-05-26T07:42:52.251Z,71.60
2019-05-26T07:43:53.201Z,71.40
2019-05-26T07:44:51.135Z,70.76
2019-05-26T07:45:53.330Z,70.86
2019-05-26T07:46:51.166Z,70.83
2019-05-26T07:48:52.244Z,70.89
2019-05-26T07:49:51.127Z,69.58
2019-05-26T07:50:51.038Z,71.00
2019-05-26T07:51:51.098Z,68.95
2019-05-26T07:52:51.063Z,69.35
2019-05-26T07:53:51.114Z,68.30
2019-05-26T07:54:51.824Z,67.43
2019-05-26T07:55:51.027Z,68.21
2019-05-26T07:56:51.030Z,69.42
2019-05-26T07:57:50.998Z,68.77
2019-05-26T07:58:51.053Z,67.87
2019-05-26T07:59:50.959Z,67.16
2019-05-26T08:00:51.118Z,66.93
2019-05-26T08:01:50.959Z,66.33
2019-05-26T08:02:51.123Z,66.90
2019-05-26T08:03:50.900Z,65.89
2019-05-26T08:04:51.113Z,66.39
2019-05-26T08:05:50.875Z,65.16
2019-05-26T08:06:51.109Z,64.65
2019-05-26T08:07:50.876Z,65.22
2019-05-26T08:08:51.062Z,62.21
2019-05-26T08:09:50.812Z,62.51
2019-05-26T08:10:51.035Z,63.21
2019-05-26T08:11:50.795Z,61.70
2019-05-26T08:12:50.882Z,63.68
2019-05-26T08:13:50.801Z,63.08
2019-05-26T08:14:50.933Z,63.08
2019-05-26T08:15:50.774Z,63.28
2019-05-26T08:16:50.885Z,62.91
2019-05-26T08:17:50.850Z,62.21
2019-05-26T08:19:51.912Z,64.12
2019-05-26T08:20:50.914Z,65.12
2019-05-26T08:21:53.848Z,63.89
2019-05-26T08:22:50.861Z,63.59
2019-05-26T08:23:50.710Z,62.58
2019-05-26T08:24:50.713Z,61.98
2019-05-26T08:25:50.701Z,63.31
2019-05-26T08:26:50.937Z,63.59
2019-05-26T08:27:50.621Z,62.58
2019-05-26T08:28:50.695Z,63.25
2019-05-26T08:29:50.625Z,62.24
2019-05-26T08:30:51.093Z,61.85
2019-05-26T08:31:50.589Z,61.85
2019-05-26T08:33:51.711Z,61.44
2019-05-26T08:34:50.584Z,60.31
2019-05-26T08:35:50.528Z,60.31
2019-05-26T08:36:50.716Z,59.63
2019-05-26T08:38:51.706Z,60.74
2019-05-26T08:39:50.631Z,59.03
2019-05-26T08:40:50.658Z,58.86
2019-05-26T08:41:50.611Z,59.16
2019-05-26T08:42:50.674Z,59.36
2019-05-26T08:43:50.626Z,60.77
2019-05-26T08:44:50.596Z,60.47
2019-05-26T08:45:50.502Z,59.26
2019-05-26T08:46:50.508Z,60.36
2019-05-26T08:47:50.407Z,58.15
2019-05-26T08:48:50.497Z,57.98
2019-05-26T08:49:50.416Z,58.86
2019-05-26T08:50:50.628Z,59.86
2019-05-26T08:51:50.361Z,59.06
2019-05-26T08:52:50.410Z,57.48
2019-05-26T08:53:50.525Z,58.05
2019-05-26T08:54:50.460Z,57.78
2019-05-26T08:55:50.325Z,59.08
2019-05-26T08:56:50.430Z,59.69
2019-05-26T08:57:50.294Z,57.98
2019-05-26T08:58:50.347Z,58.07
2019-05-26T08:59:50.343Z,57.78
2019-05-26T09:00:50.357Z,58.51
2019-05-26T09:01:50.259Z,58.01
2019-05-26T09:02:51.824Z,57.70
2019-05-26T09:03:50.238Z,59.72
2019-05-26T09:04:50.320Z,59.14
2019-05-26T09:05:50.266Z,59.44
2019-05-26T09:06:50.294Z,59.84
2019-05-26T09:07:50.236Z,59.04
2019-05-26T09:08:50.266Z,57.53
2019-05-26T09:09:50.159Z,59.24
2019-05-26T09:10:50.362Z,59.44
2019-05-26T09:11:50.144Z,59.84
2019-05-26T09:13:00.196Z,59.24
2019-05-26T09:13:51.124Z,58.76
2019-05-26T09:14:50.143Z,59.88
2019-05-26T09:15:50.195Z,59.55
2019-05-26T09:16:50.162Z,59.67
2019-05-26T09:17:50.105Z,60.08
2019-05-26T09:18:50.174Z,59.67
2019-05-26T09:19:50.061Z,59.47
2019-05-26T09:20:50.248Z,59.75
2019-05-26T09:21:50.030Z,60.25
2019-05-26T09:22:50.111Z,60.15
2019-05-26T09:23:50.014Z,59.44
2019-05-26T09:24:50.113Z,60.15
2019-05-26T09:25:50.016Z,59.44
2019-05-26T09:26:50.027Z,60.05
2019-05-26T09:27:49.969Z,60.55
2019-05-26T09:28:50.037Z,58.41
2019-05-26T09:29:49.940Z,58.14
2019-05-26T09:30:50.102Z,57.53
2019-05-26T09:31:50.051Z,58.14
2019-05-26T09:32:49.975Z,58.94
2019-05-26T09:33:49.899Z,58.21
2019-05-26T09:34:50.087Z,58.31
2019-05-26T09:35:49.925Z,58.11
2019-05-26T09:36:49.993Z,57.90
2019-05-26T09:37:49.862Z,58.28
2019-05-26T09:38:49.926Z,57.57
2019-05-26T09:39:49.896Z,57.95
2019-05-26T09:40:49.959Z,58.25
2019-05-26T09:41:49.843Z,58.12
2019-05-26T09:42:49.949Z,57.92
2019-05-26T09:43:49.792Z,58.50
2019-05-26T09:44:49.842Z,58.40
2019-05-26T09:45:49.839Z,59.00
2019-05-26T09:46:49.904Z,57.87
2019-05-26T09:47:49.759Z,57.57
2019-05-26T09:48:49.875Z,57.67
2019-05-26T09:49:49.799Z,56.86
2019-05-26T09:50:49.789Z,56.46
2019-05-26T09:51:49.743Z,57.17
2019-05-26T09:52:49.846Z,55.96
2019-05-26T09:54:01.203Z,56.46
2019-05-26T09:54:50.680Z,56.03
2019-05-26T09:55:49.731Z,56.43
2019-05-26T09:56:49.687Z,55.71
2019-05-26T09:57:49.738Z,55.91
2019-05-26T09:58:49.653Z,56.21
2019-05-26T09:59:49.649Z,55.60
2019-05-26T10:00:49.615Z,55.91
2019-05-26T10:01:49.650Z,56.01
2019-05-26T10:02:49.614Z,56.10
2019-05-26T10:03:49.668Z,56.38
2019-05-26T10:04:49.578Z,56.56
2019-05-26T10:05:49.578Z,53.87
2019-05-26T10:06:49.573Z,53.85
2019-05-26T10:07:49.809Z,55.25
2019-05-26T10:08:49.539Z,55.75
2019-05-26T10:09:49.704Z,55.75
2019-05-26T10:10:49.595Z,53.92
2019-05-26T10:12:50.647Z,54.25
2019-05-26T10:13:49.540Z,55.55
2019-05-26T10:14:49.460Z,55.32
2019-05-26T10:15:49.580Z,54.52
2019-05-26T10:16:49.434Z,55.22
2019-05-26T10:17:49.509Z,55.40
2019-05-26T10:18:49.413Z,55.93
2019-05-26T10:19:49.516Z,56.00
2019-05-26T10:20:49.392Z,54.10
2019-05-26T10:21:49.492Z,53.00
2019-05-26T10:22:49.369Z,53.30
2019-05-26T10:23:52.920Z,52.39
2019-05-26T10:24:49.347Z,51.82
2019-05-26T10:26:50.462Z,52.82
2019-05-26T10:27:49.494Z,51.64
2019-05-26T10:28:49.355Z,52.94
2019-05-26T10:29:49.352Z,51.24
2019-05-26T10:30:49.296Z,52.24
2019-05-26T10:31:49.352Z,52.84
2019-05-26T10:32:49.248Z,53.55
2019-05-26T10:33:49.309Z,52.82
2019-05-26T10:34:49.226Z,51.62
2019-05-26T10:35:49.297Z,51.92
2019-05-26T10:36:49.223Z,51.92
2019-05-26T10:37:49.306Z,51.21
2019-05-26T10:38:49.224Z,51.32
2019-05-26T10:39:49.217Z,51.39
2019-05-26T10:40:49.162Z,51.29
2019-05-26T10:41:49.221Z,51.69
2019-05-26T10:42:49.171Z,51.39
2019-05-26T10:43:49.551Z,52.07
2019-05-26T10:44:49.121Z,52.47
2019-05-26T10:45:49.265Z,53.07
2019-05-26T10:46:49.100Z,52.77
2019-05-26T10:47:49.220Z,53.05
2019-05-26T10:48:49.108Z,53.24
2019-05-26T10:49:49.172Z,51.44
2019-05-26T10:50:49.056Z,52.04
2019-05-26T10:51:49.089Z,51.52
2019-05-26T10:52:49.075Z,51.74
2019-05-26T10:53:49.299Z,51.25
2019-05-26T10:54:49.016Z,50.84
2019-05-26T10:55:49.129Z,51.54
2019-05-26T10:56:48.983Z,51.44
2019-05-26T10:57:49.045Z,51.77
2019-05-26T10:58:48.988Z,51.07
2019-05-26T10:59:49.103Z,52.29
2019-05-26T11:00:48.954Z,51.69
2019-05-26T11:01:49.048Z,51.69
2019-05-26T11:02:48.964Z,52.89
2019-05-26T11:03:49.088Z,52.39
2019-05-26T11:04:48.901Z,53.17
2019-05-26T11:05:48.987Z,52.87
2019-05-26T11:06:48.916Z,51.77
2019-05-26T11:07:49.014Z,52.97
2019-05-26T11:08:48.912Z,52.55
2019-05-26T11:09:48.903Z,53.14
2019-05-26T11:10:48.837Z,52.92
2019-05-26T11:11:49.059Z,52.02
2019-05-26T11:12:48.828Z,52.72
2019-05-26T11:14:01.950Z,52.52
2019-05-26T11:14:49.877Z,52.62
2019-05-26T11:15:48.935Z,52.62
2019-05-26T11:16:48.816Z,51.52
2019-05-26T11:17:48.854Z,51.64
2019-05-26T11:18:48.785Z,51.74
2019-05-26T11:19:48.805Z,52.84
2019-05-26T11:20:48.732Z,52.74
2019-05-26T11:21:48.781Z,53.05
2019-05-26T11:22:48.719Z,54.14
2019-05-26T11:23:48.809Z,53.87
2019-05-26T11:24:48.720Z,54.07
2019-05-26T11:25:48.705Z,54.17
2019-05-26T11:26:48.654Z,55.17
2019-05-26T11:27:48.716Z,55.07
2019-05-26T11:28:48.633Z,55.85
2019-05-26T11:29:48.763Z,55.52
2019-05-26T11:30:48.646Z,54.74
2019-05-26T11:31:48.669Z,54.42
2019-05-26T11:32:48.744Z,53.02
2019-05-26T11:33:48.687Z,52.74
2019-05-26T11:35:00.725Z,53.94
2019-05-26T11:35:49.553Z,53.05
2019-05-26T11:36:48.641Z,53.42
2019-05-26T11:37:48.539Z,53.62
2019-05-26T11:38:48.611Z,52.82
2019-05-26T11:39:48.553Z,52.92
2019-05-26T11:40:48.649Z,53.79
2019-05-26T11:41:54.694Z,53.89
2019-05-26T11:42:49.549Z,53.57
2019-05-26T11:43:48.467Z,53.47
2019-05-26T11:44:48.588Z,53.47
2019-05-26T11:45:48.647Z,52.87
2019-05-26T11:46:48.550Z,52.27
2019-05-26T11:47:48.428Z,53.17
2019-05-26T11:48:48.461Z,52.99
2019-05-26T11:49:48.425Z,52.39
2019-05-26T11:50:48.518Z,54.29
2019-05-26T11:51:48.386Z,53.89
2019-05-26T11:52:48.490Z,52.97
2019-05-26T11:53:48.358Z,53.47
2019-05-26T11:54:48.402Z,53.57
2019-05-26T11:55:48.361Z,52.94
2019-05-26T11:56:48.413Z,53.24
2019-05-26T11:57:48.321Z,51.04
2019-05-26T11:58:48.425Z,53.14
2019-05-26T11:59:48.288Z,52.97
2019-05-26T12:00:48.406Z,54.27
2019-05-26T12:01:48.289Z,53.54
2019-05-26T12:02:48.354Z,53.54
2019-05-26T12:03:48.439Z,52.55
2019-05-26T12:04:48.366Z,52.64
2019-05-26T12:05:48.322Z,52.87
2019-05-26T12:06:48.286Z,52.27
2019-05-26T12:07:48.204Z,52.77
2019-05-26T12:08:48.313Z,53.47
2019-05-26T12:09:48.184Z,53.44
2019-05-26T12:10:49.267Z,51.64
2019-05-26T12:11:48.162Z,51.87
2019-05-26T12:12:48.219Z,51.97
2019-05-26T12:13:48.235Z,51.34
2019-05-26T12:14:48.232Z,53.61
2019-05-26T12:15:48.206Z,52.00
2019-05-26T12:16:48.263Z,52.99
2019-05-26T12:17:48.099Z,51.57
2019-05-26T12:18:48.158Z,51.27
2019-05-26T12:19:48.152Z,51.17
2019-05-26T12:20:48.307Z,51.37
2019-05-26T12:21:48.138Z,51.65
2019-05-26T12:22:48.327Z,52.74
2019-05-26T12:23:48.045Z,50.97
2019-05-26T12:24:48.107Z,50.97
2019-05-26T12:25:48.018Z,51.67
2019-05-26T12:26:48.166Z,52.00
2019-05-26T12:27:48.009Z,52.39
2019-05-26T12:28:48.054Z,51.10
2019-05-26T12:29:47.967Z,52.87
2019-05-26T12:30:48.034Z,51.67
2019-05-26T12:31:47.979Z,50.60
2019-05-26T12:32:48.049Z,51.50
2019-05-26T12:33:47.977Z,50.32
2019-05-26T12:34:47.978Z,51.62
2019-05-26T12:35:47.913Z,51.22
2019-05-26T12:36:48.003Z,50.90
2019-05-26T12:37:48.653Z,50.30
2019-05-26T12:38:48.010Z,49.62
2019-05-26T12:39:47.865Z,50.62
2019-05-26T12:40:47.910Z,51.42
2019-05-26T12:41:47.873Z,50.99
2019-05-26T12:42:47.919Z,51.10
2019-05-26T12:43:47.813Z,52.09
2019-05-26T12:44:49.946Z,51.29
2019-05-26T12:45:47.796Z,49.98
2019-05-26T12:46:47.941Z,49.80
2019-05-26T12:47:47.799Z,50.60
2019-05-26T12:48:47.857Z,50.97
2019-05-26T12:49:47.751Z,52.87
2019-05-26T12:50:47.764Z,51.29
2019-05-26T12:51:47.756Z,51.10
2019-05-26T12:52:47.858Z,51.20
2019-05-26T12:53:47.908Z,50.99
2019-05-26T12:54:47.883Z,51.50
2019-05-26T12:55:47.701Z,50.40
2019-05-26T12:56:47.701Z,50.92
2019-05-26T12:57:47.730Z,50.30
2019-05-26T12:58:47.727Z,51.89
2019-05-26T12:59:47.643Z,52.19
2019-05-26T13:00:50.783Z,51.10
2019-05-26T13:01:48.624Z,51.89
2019-05-26T13:02:47.734Z,51.29
2019-05-26T13:03:47.614Z,51.40
2019-05-26T13:04:47.660Z,51.10
2019-05-26T13:05:47.580Z,52.19
2019-05-26T13:06:47.679Z,52.00
2019-05-26T13:07:47.580Z,53.19
2019-05-26T13:08:47.898Z,51.79
2019-05-26T13:09:47.539Z,51.59
2019-05-26T13:10:47.744Z,52.79
2019-05-26T13:11:47.534Z,52.62
2019-05-26T13:12:47.706Z,51.62
2019-05-26T13:13:47.496Z,53.52
2019-05-26T13:14:47.519Z,53.02
2019-05-26T13:15:47.461Z,53.52
2019-05-26T13:16:47.624Z,52.69
2019-05-26T13:17:47.434Z,53.49
2019-05-26T13:18:47.583Z,52.99
2019-05-26T13:19:47.424Z,52.79
2019-05-26T13:20:47.458Z,51.72
2019-05-26T13:21:47.421Z,52.62
2019-05-26T13:22:47.525Z,53.74